sensor_id;sensor_type;location;lat;lon;timestamp;temperature;humidity
13976;DHT22;7062;49.792;9.946;2023-07-31T00:00:11;18.80;99.90
13976;DHT22;7062;49.792;9.946;2023-07-31T00:02:37;18.80;99.90
13976;DHT22;7062;49.792;9.946;2023-07-31T00:05:03;18.80;99.90
13976;DHT22;7062;49.792;9.946;2023-07-31T00:07:28;18.70;99.90
13976;DHT22;7062;49.792;9.946;2023-07-31T00:09:54;18.80;99.90
13976;DHT22;7062;49.792;9.946;2023-07-31T00:12:22;18.80;99.90
13976;DHT22;7062;49.792;9.946;2023-07-31T00:14:48;18.80;99.90
13976;DHT22;7062;49.792;9.946;2023-07-31T00:17:14;18.70;99.90
13976;DHT22;7062;49.792;9.946;2023-07-31T00:19:40;18.70;99.90
13976;DHT22;7062;49.792;9.946;2023-07-31T00:22:05;18.70;99.90
13976;DHT22;7062;49.792;9.946;2023-07-31T00:24:31;18.70;99.90
13976;DHT22;7062;49.792;9.946;2023-07-31T00:26:57;18.70;99.90
13976;DHT22;7062;49.792;9.946;2023-07-31T00:29:22;18.60;99.90
13976;DHT22;7062;49.792;9.946;2023-07-31T00:31:48;18.50;99.90
13976;DHT22;7062;49.792;9.946;2023-07-31T00:34:14;18.50;99.90
13976;DHT22;7062;49.792;9.946;2023-07-31T00:36:39;18.50;99.90
13976;DHT22;7062;49.792;9.946;2023-07-31T00:39:05;18.40;99.90
13976;DHT22;7062;49.792;9.946;2023-07-31T00:41:31;18.40;99.90
13976;DHT22;7062;49.792;9.946;2023-07-31T00:43:56;18.40;99.90
13976;DHT22;7062;49.792;9.946;2023-07-31T00:46:22;18.50;99.90
13976;DHT22;7062;49.792;9.946;2023-07-31T00:48:48;18.50;99.90
13976;DHT22;7062;49.792;9.946;2023-07-31T00:51:14;18.50;99.90
13976;DHT22;7062;49.792;9.946;2023-07-31T00:53:40;18.40;99.90
13976;DHT22;7062;49.792;9.946;2023-07-31T00:56:06;18.40;99.90
13976;DHT22;7062;49.792;9.946;2023-07-31T00:58:32;18.40;99.90
13976;DHT22;7062;49.792;9.946;2023-07-31T01:00:58;18.40;99.90
13976;DHT22;7062;49.792;9.946;2023-07-31T01:03:23;18.30;99.90
13976;DHT22;7062;49.792;9.946;2023-07-31T01:08:27;18.20;99.90
13976;DHT22;7062;49.792;9.946;2023-07-31T01:11:19;18.20;99.90
13976;DHT22;7062;49.792;9.946;2023-07-31T01:13:47;18.30;99.90
13976;DHT22;7062;49.792;9.946;2023-07-31T01:16:14;18.30;99.90
13976;DHT22;7062;49.792;9.946;2023-07-31T01:18:40;18.20;99.90
13976;DHT22;7062;49.792;9.946;2023-07-31T01:26:45;18.10;99.90
13976;DHT22;7062;49.792;9.946;2023-07-31T01:29:35;18.10;99.90
13976;DHT22;7062;49.792;9.946;2023-07-31T01:32:02;18.10;99.90
13976;DHT22;7062;49.792;9.946;2023-07-31T01:34:29;18.10;99.90
13976;DHT22;7062;49.792;9.946;2023-07-31T01:36:56;18.10;99.90
13976;DHT22;7062;49.792;9.946;2023-07-31T01:39:23;18.00;99.90
13976;DHT22;7062;49.792;9.946;2023-07-31T01:41:49;18.10;99.90
13976;DHT22;7062;49.792;9.946;2023-07-31T01:44:15;18.10;99.90
13976;DHT22;7062;49.792;9.946;2023-07-31T01:46:40;18.10;99.90
13976;DHT22;7062;49.792;9.946;2023-07-31T01:49:06;18.10;99.90
13976;DHT22;7062;49.792;9.946;2023-07-31T01:51:32;18.10;99.90
13976;DHT22;7062;49.792;9.946;2023-07-31T01:54:01;18.00;99.90
13976;DHT22;7062;49.792;9.946;2023-07-31T01:56:27;18.00;99.90
13976;DHT22;7062;49.792;9.946;2023-07-31T01:58:52;18.00;99.90
13976;DHT22;7062;49.792;9.946;2023-07-31T02:01:18;18.00;99.90
13976;DHT22;7062;49.792;9.946;2023-07-31T02:03:44;18.00;99.90
13976;DHT22;7062;49.792;9.946;2023-07-31T02:06:09;17.90;99.90
13976;DHT22;7062;49.792;9.946;2023-07-31T02:08:35;17.90;99.90
13976;DHT22;7062;49.792;9.946;2023-07-31T02:11:00;17.90;99.90
13976;DHT22;7062;49.792;9.946;2023-07-31T02:13:26;17.90;99.90
13976;DHT22;7062;49.792;9.946;2023-07-31T02:15:52;17.90;99.90
13976;DHT22;7062;49.792;9.946;2023-07-31T02:18:17;17.90;99.90
13976;DHT22;7062;49.792;9.946;2023-07-31T02:20:43;17.90;99.90
13976;DHT22;7062;49.792;9.946;2023-07-31T02:23:11;17.90;99.90
13976;DHT22;7062;49.792;9.946;2023-07-31T02:25:37;17.80;99.90
13976;DHT22;7062;49.792;9.946;2023-07-31T02:28:02;17.80;99.90
13976;DHT22;7062;49.792;9.946;2023-07-31T02:30:28;17.80;99.90
13976;DHT22;7062;49.792;9.946;2023-07-31T02:32:54;17.80;99.90
13976;DHT22;7062;49.792;9.946;2023-07-31T02:35:19;17.80;99.90
13976;DHT22;7062;49.792;9.946;2023-07-31T02:37:45;17.80;99.90
13976;DHT22;7062;49.792;9.946;2023-07-31T02:40:11;17.70;99.90
13976;DHT22;7062;49.792;9.946;2023-07-31T02:42:37;17.70;99.90
13976;DHT22;7062;49.792;9.946;2023-07-31T02:45:03;17.70;99.90
13976;DHT22;7062;49.792;9.946;2023-07-31T02:47:28;17.70;99.90
13976;DHT22;7062;49.792;9.946;2023-07-31T02:49:54;17.70;99.90
13976;DHT22;7062;49.792;9.946;2023-07-31T02:52:21;17.60;99.90
13976;DHT22;7062;49.792;9.946;2023-07-31T02:54:46;17.60;99.90
13976;DHT22;7062;49.792;9.946;2023-07-31T02:57:12;17.60;99.90
13976;DHT22;7062;49.792;9.946;2023-07-31T02:59:38;17.60;99.90
13976;DHT22;7062;49.792;9.946;2023-07-31T03:02:04;17.60;99.90
13976;DHT22;7062;49.792;9.946;2023-07-31T03:04:29;17.60;99.90
13976;DHT22;7062;49.792;9.946;2023-07-31T03:06:55;17.50;99.90
13976;DHT22;7062;49.792;9.946;2023-07-31T03:09:21;17.50;99.90
13976;DHT22;7062;49.792;9.946;2023-07-31T03:11:46;17.50;99.90
13976;DHT22;7062;49.792;9.946;2023-07-31T03:14:12;17.50;99.90
13976;DHT22;7062;49.792;9.946;2023-07-31T03:16:38;17.50;99.90
13976;DHT22;7062;49.792;9.946;2023-07-31T03:19:03;17.50;99.90
13976;DHT22;7062;49.792;9.946;2023-07-31T03:21:29;17.60;99.90
13976;DHT22;7062;49.792;9.946;2023-07-31T03:23:54;17.60;99.90
13976;DHT22;7062;49.792;9.946;2023-07-31T03:26:20;17.60;99.90
13976;DHT22;7062;49.792;9.946;2023-07-31T03:28:46;17.50;99.90
13976;DHT22;7062;49.792;9.946;2023-07-31T03:31:11;17.60;99.90
13976;DHT22;7062;49.792;9.946;2023-07-31T03:33:37;17.60;99.90
13976;DHT22;7062;49.792;9.946;2023-07-31T03:36:03;17.60;99.90
13976;DHT22;7062;49.792;9.946;2023-07-31T03:38:29;17.60;99.90
13976;DHT22;7062;49.792;9.946;2023-07-31T03:40:54;17.50;99.90
13976;DHT22;7062;49.792;9.946;2023-07-31T03:43:20;17.60;99.90
13976;DHT22;7062;49.792;9.946;2023-07-31T03:45:46;17.60;99.90
13976;DHT22;7062;49.792;9.946;2023-07-31T03:48:11;17.60;99.90
13976;DHT22;7062;49.792;9.946;2023-07-31T03:50:37;17.50;99.90
13976;DHT22;7062;49.792;9.946;2023-07-31T03:53:03;17.50;99.90
13976;DHT22;7062;49.792;9.946;2023-07-31T03:55:28;17.50;99.90
13976;DHT22;7062;49.792;9.946;2023-07-31T03:57:54;17.50;99.90
13976;DHT22;7062;49.792;9.946;2023-07-31T04:00:19;17.50;99.90
13976;DHT22;7062;49.792;9.946;2023-07-31T04:02:46;17.50;99.90
13976;DHT22;7062;49.792;9.946;2023-07-31T04:05:12;17.50;99.90
13976;DHT22;7062;49.792;9.946;2023-07-31T04:07:38;17.40;99.90
13976;DHT22;7062;49.792;9.946;2023-07-31T04:10:03;17.50;99.90
13976;DHT22;7062;49.792;9.946;2023-07-31T04:12:29;17.50;99.90
13976;DHT22;7062;49.792;9.946;2023-07-31T04:14:55;17.50;99.90
13976;DHT22;7062;49.792;9.946;2023-07-31T04:17:20;17.50;99.90
13976;DHT22;7062;49.792;9.946;2023-07-31T04:19:46;17.50;99.90
13976;DHT22;7062;49.792;9.946;2023-07-31T04:22:12;17.50;99.90
13976;DHT22;7062;49.792;9.946;2023-07-31T04:24:37;17.50;99.90
13976;DHT22;7062;49.792;9.946;2023-07-31T04:27:03;17.50;99.90
13976;DHT22;7062;49.792;9.946;2023-07-31T04:29:29;17.60;99.90
13976;DHT22;7062;49.792;9.946;2023-07-31T04:31:54;17.60;99.90
13976;DHT22;7062;49.792;9.946;2023-07-31T04:34:20;17.60;99.90
13976;DHT22;7062;49.792;9.946;2023-07-31T04:36:45;17.60;99.90
13976;DHT22;7062;49.792;9.946;2023-07-31T04:39:11;17.60;99.90
13976;DHT22;7062;49.792;9.946;2023-07-31T04:41:37;17.60;99.90
13976;DHT22;7062;49.792;9.946;2023-07-31T04:44:02;17.60;99.90
13976;DHT22;7062;49.792;9.946;2023-07-31T04:46:29;17.70;99.90
13976;DHT22;7062;49.792;9.946;2023-07-31T04:48:55;17.70;99.90
13976;DHT22;7062;49.792;9.946;2023-07-31T04:51:21;17.70;99.90
13976;DHT22;7062;49.792;9.946;2023-07-31T04:53:47;17.70;99.90
13976;DHT22;7062;49.792;9.946;2023-07-31T04:56:12;17.80;99.90
13976;DHT22;7062;49.792;9.946;2023-07-31T04:58:39;17.80;99.90
13976;DHT22;7062;49.792;9.946;2023-07-31T05:01:04;17.90;99.90
13976;DHT22;7062;49.792;9.946;2023-07-31T05:03:30;17.90;99.90
13976;DHT22;7062;49.792;9.946;2023-07-31T05:05:56;18.00;99.90
13976;DHT22;7062;49.792;9.946;2023-07-31T05:08:21;17.90;99.90
13976;DHT22;7062;49.792;9.946;2023-07-31T05:10:47;17.90;99.90
13976;DHT22;7062;49.792;9.946;2023-07-31T05:13:12;18.00;99.90
13976;DHT22;7062;49.792;9.946;2023-07-31T05:15:38;17.90;99.90
13976;DHT22;7062;49.792;9.946;2023-07-31T05:18:04;18.00;99.90
13976;DHT22;7062;49.792;9.946;2023-07-31T05:20:29;17.90;99.90
13976;DHT22;7062;49.792;9.946;2023-07-31T05:22:55;18.00;99.90
13976;DHT22;7062;49.792;9.946;2023-07-31T05:25:21;18.00;99.90
13976;DHT22;7062;49.792;9.946;2023-07-31T05:27:46;18.00;99.90
13976;DHT22;7062;49.792;9.946;2023-07-31T05:30:12;18.00;99.90
13976;DHT22;7062;49.792;9.946;2023-07-31T05:32:37;18.10;99.90
13976;DHT22;7062;49.792;9.946;2023-07-31T05:35:03;18.10;99.90
13976;DHT22;7062;49.792;9.946;2023-07-31T05:37:30;18.20;99.90
13976;DHT22;7062;49.792;9.946;2023-07-31T05:39:56;18.20;99.90
13976;DHT22;7062;49.792;9.946;2023-07-31T05:42:22;18.20;99.90
13976;DHT22;7062;49.792;9.946;2023-07-31T05:44:48;18.20;99.90
13976;DHT22;7062;49.792;9.946;2023-07-31T05:47:13;18.10;99.90
13976;DHT22;7062;49.792;9.946;2023-07-31T05:49:39;18.30;99.90
13976;DHT22;7062;49.792;9.946;2023-07-31T05:52:05;18.40;99.90
13976;DHT22;7062;49.792;9.946;2023-07-31T05:54:31;18.50;99.90
13976;DHT22;7062;49.792;9.946;2023-07-31T05:56:57;18.50;99.90
13976;DHT22;7062;49.792;9.946;2023-07-31T05:59:23;18.60;99.90
13976;DHT22;7062;49.792;9.946;2023-07-31T06:01:48;18.60;99.90
13976;DHT22;7062;49.792;9.946;2023-07-31T06:04:14;18.60;99.90
13976;DHT22;7062;49.792;9.946;2023-07-31T06:06:40;18.70;99.90
13976;DHT22;7062;49.792;9.946;2023-07-31T06:09:06;18.70;99.90
13976;DHT22;7062;49.792;9.946;2023-07-31T06:11:32;18.60;99.90
13976;DHT22;7062;49.792;9.946;2023-07-31T06:13:58;18.70;99.90
13976;DHT22;7062;49.792;9.946;2023-07-31T06:16:25;18.70;99.90
13976;DHT22;7062;49.792;9.946;2023-07-31T06:18:50;18.80;99.90
13976;DHT22;7062;49.792;9.946;2023-07-31T06:21:17;18.80;99.90
13976;DHT22;7062;49.792;9.946;2023-07-31T06:23:42;18.80;99.90
13976;DHT22;7062;49.792;9.946;2023-07-31T06:26:08;18.90;99.90
13976;DHT22;7062;49.792;9.946;2023-07-31T06:28:34;19.00;99.90
13976;DHT22;7062;49.792;9.946;2023-07-31T06:31:00;18.90;99.90
13976;DHT22;7062;49.792;9.946;2023-07-31T06:33:27;19.00;99.90
13976;DHT22;7062;49.792;9.946;2023-07-31T06:35:52;19.00;99.90
13976;DHT22;7062;49.792;9.946;2023-07-31T06:38:23;19.00;99.90
13976;DHT22;7062;49.792;9.946;2023-07-31T06:40:49;19.10;99.90
13976;DHT22;7062;49.792;9.946;2023-07-31T06:43:15;19.10;99.90
13976;DHT22;7062;49.792;9.946;2023-07-31T06:45:41;19.00;99.90
13976;DHT22;7062;49.792;9.946;2023-07-31T06:48:07;19.00;99.90
13976;DHT22;7062;49.792;9.946;2023-07-31T06:50:32;19.00;99.90
13976;DHT22;7062;49.792;9.946;2023-07-31T06:52:58;19.20;99.90
13976;DHT22;7062;49.792;9.946;2023-07-31T06:55:24;19.30;99.90
13976;DHT22;7062;49.792;9.946;2023-07-31T06:57:53;19.40;99.90
13976;DHT22;7062;49.792;9.946;2023-07-31T07:00:20;19.50;99.90
13976;DHT22;7062;49.792;9.946;2023-07-31T07:02:47;19.50;99.90
13976;DHT22;7062;49.792;9.946;2023-07-31T07:05:16;19.70;99.90
13976;DHT22;7062;49.792;9.946;2023-07-31T07:07:43;19.60;99.90
13976;DHT22;7062;49.792;9.946;2023-07-31T07:10:09;19.60;99.90
13976;DHT22;7062;49.792;9.946;2023-07-31T07:12:35;19.60;99.90
13976;DHT22;7062;49.792;9.946;2023-07-31T07:15:01;19.50;99.90
13976;DHT22;7062;49.792;9.946;2023-07-31T07:17:29;19.60;99.90
13976;DHT22;7062;49.792;9.946;2023-07-31T07:19:58;19.60;99.90
13976;DHT22;7062;49.792;9.946;2023-07-31T07:22:24;19.80;99.90
13976;DHT22;7062;49.792;9.946;2023-07-31T07:24:50;19.90;99.90
13976;DHT22;7062;49.792;9.946;2023-07-31T07:27:16;20.00;99.90
13976;DHT22;7062;49.792;9.946;2023-07-31T07:29:41;20.00;99.90
13976;DHT22;7062;49.792;9.946;2023-07-31T07:32:07;20.20;99.90
13976;DHT22;7062;49.792;9.946;2023-07-31T07:34:33;20.20;99.90
13976;DHT22;7062;49.792;9.946;2023-07-31T07:36:58;20.10;99.90
13976;DHT22;7062;49.792;9.946;2023-07-31T07:39:24;20.20;99.90
13976;DHT22;7062;49.792;9.946;2023-07-31T07:41:50;20.20;99.90
13976;DHT22;7062;49.792;9.946;2023-07-31T07:44:16;20.20;99.90
13976;DHT22;7062;49.792;9.946;2023-07-31T07:46:41;20.00;99.90
13976;DHT22;7062;49.792;9.946;2023-07-31T07:49:07;20.00;99.90
13976;DHT22;7062;49.792;9.946;2023-07-31T07:51:33;20.10;99.90
13976;DHT22;7062;49.792;9.946;2023-07-31T07:53:59;20.10;99.90
13976;DHT22;7062;49.792;9.946;2023-07-31T07:56:27;20.30;99.90
13976;DHT22;7062;49.792;9.946;2023-07-31T07:58:54;20.20;99.90
13976;DHT22;7062;49.792;9.946;2023-07-31T08:01:19;20.40;99.90
13976;DHT22;7062;49.792;9.946;2023-07-31T08:03:46;20.50;99.90
13976;DHT22;7062;49.792;9.946;2023-07-31T08:06:12;20.40;99.90
13976;DHT22;7062;49.792;9.946;2023-07-31T08:08:37;20.40;99.90
13976;DHT22;7062;49.792;9.946;2023-07-31T08:11:03;20.40;99.90
13976;DHT22;7062;49.792;9.946;2023-07-31T08:13:30;20.60;99.90
13976;DHT22;7062;49.792;9.946;2023-07-31T08:15:55;20.70;99.90
13976;DHT22;7062;49.792;9.946;2023-07-31T08:18:21;20.80;99.90
13976;DHT22;7062;49.792;9.946;2023-07-31T08:20:47;20.90;99.90
13976;DHT22;7062;49.792;9.946;2023-07-31T08:23:13;20.90;99.90
13976;DHT22;7062;49.792;9.946;2023-07-31T08:25:39;20.70;99.90
13976;DHT22;7062;49.792;9.946;2023-07-31T08:28:05;20.60;99.90
13976;DHT22;7062;49.792;9.946;2023-07-31T08:30:31;20.60;99.90
13976;DHT22;7062;49.792;9.946;2023-07-31T08:32:57;20.60;99.90
13976;DHT22;7062;49.792;9.946;2023-07-31T08:35:24;20.60;99.90
13976;DHT22;7062;49.792;9.946;2023-07-31T08:37:50;20.90;99.90
13976;DHT22;7062;49.792;9.946;2023-07-31T08:40:16;21.10;99.90
13976;DHT22;7062;49.792;9.946;2023-07-31T08:42:46;20.90;99.90
13976;DHT22;7062;49.792;9.946;2023-07-31T08:45:16;21.10;99.90
13976;DHT22;7062;49.792;9.946;2023-07-31T08:47:47;21.10;99.90
13976;DHT22;7062;49.792;9.946;2023-07-31T08:50:16;21.20;99.90
13976;DHT22;7062;49.792;9.946;2023-07-31T08:52:42;21.20;99.90
13976;DHT22;7062;49.792;9.946;2023-07-31T08:55:08;21.40;99.90
13976;DHT22;7062;49.792;9.946;2023-07-31T08:57:36;21.60;99.90
13976;DHT22;7062;49.792;9.946;2023-07-31T09:00:04;21.60;99.90
13976;DHT22;7062;49.792;9.946;2023-07-31T09:05:17;21.40;99.90
13976;DHT22;7062;49.792;9.946;2023-07-31T09:07:44;21.70;99.90
13976;DHT22;7062;49.792;9.946;2023-07-31T09:10:12;21.80;99.90
13976;DHT22;7062;49.792;9.946;2023-07-31T09:12:38;21.60;99.90
13976;DHT22;7062;49.792;9.946;2023-07-31T09:15:05;21.90;99.90
13976;DHT22;7062;49.792;9.946;2023-07-31T09:17:32;22.20;99.90
13976;DHT22;7062;49.792;9.946;2023-07-31T09:22:38;22.30;99.90
13976;DHT22;7062;49.792;9.946;2023-07-31T09:25:24;22.00;99.90
13976;DHT22;7062;49.792;9.946;2023-07-31T09:28:09;21.80;99.90
13976;DHT22;7062;49.792;9.946;2023-07-31T09:30:49;21.70;99.90
13976;DHT22;7062;49.792;9.946;2023-07-31T09:33:14;21.70;99.90
13976;DHT22;7062;49.792;9.946;2023-07-31T09:35:41;22.00;99.90
13976;DHT22;7062;49.792;9.946;2023-07-31T09:38:14;22.10;99.90
13976;DHT22;7062;49.792;9.946;2023-07-31T09:40:45;22.10;99.90
13976;DHT22;7062;49.792;9.946;2023-07-31T09:43:13;22.30;99.90
13976;DHT22;7062;49.792;9.946;2023-07-31T09:45:43;22.40;99.90
13976;DHT22;7062;49.792;9.946;2023-07-31T09:48:13;22.60;99.90
13976;DHT22;7062;49.792;9.946;2023-07-31T09:50:43;22.40;99.90
13976;DHT22;7062;49.792;9.946;2023-07-31T09:53:09;22.20;99.90
13976;DHT22;7062;49.792;9.946;2023-07-31T09:55:36;22.20;99.90
13976;DHT22;7062;49.792;9.946;2023-07-31T09:58:12;22.30;99.90
13976;DHT22;7062;49.792;9.946;2023-07-31T10:00:38;22.30;99.90
13976;DHT22;7062;49.792;9.946;2023-07-31T10:03:06;22.50;99.90
13976;DHT22;7062;49.792;9.946;2023-07-31T10:05:42;22.30;99.90
13976;DHT22;7062;49.792;9.946;2023-07-31T10:08:09;22.50;99.90
13976;DHT22;7062;49.792;9.946;2023-07-31T10:10:41;22.60;99.90
13976;DHT22;7062;49.792;9.946;2023-07-31T10:13:08;22.50;99.90
13976;DHT22;7062;49.792;9.946;2023-07-31T10:15:34;22.70;99.90
13976;DHT22;7062;49.792;9.946;2023-07-31T10:18:01;22.60;99.90
13976;DHT22;7062;49.792;9.946;2023-07-31T10:20:28;22.50;99.90
13976;DHT22;7062;49.792;9.946;2023-07-31T10:22:57;22.10;99.90
13976;DHT22;7062;49.792;9.946;2023-07-31T10:25:26;22.10;99.90
13976;DHT22;7062;49.792;9.946;2023-07-31T10:27:52;22.10;99.90
13976;DHT22;7062;49.792;9.946;2023-07-31T10:30:22;22.10;99.90
13976;DHT22;7062;49.792;9.946;2023-07-31T10:32:48;22.00;99.90
13976;DHT22;7062;49.792;9.946;2023-07-31T10:35:16;22.00;99.90
13976;DHT22;7062;49.792;9.946;2023-07-31T10:37:43;22.00;99.90
13976;DHT22;7062;49.792;9.946;2023-07-31T10:40:16;22.10;99.90
13976;DHT22;7062;49.792;9.946;2023-07-31T10:42:49;22.10;99.90
13976;DHT22;7062;49.792;9.946;2023-07-31T10:48:19;22.20;99.90
13976;DHT22;7062;49.792;9.946;2023-07-31T10:50:50;22.30;99.90
13976;DHT22;7062;49.792;9.946;2023-07-31T10:53:32;22.50;99.90
13976;DHT22;7062;49.792;9.946;2023-07-31T10:56:02;22.70;99.90
13976;DHT22;7062;49.792;9.946;2023-07-31T10:58:28;22.90;99.90
13976;DHT22;7062;49.792;9.946;2023-07-31T11:00:59;22.90;99.90
13976;DHT22;7062;49.792;9.946;2023-07-31T11:03:27;23.20;99.90
13976;DHT22;7062;49.792;9.946;2023-07-31T11:06:05;23.30;99.90
13976;DHT22;7062;49.792;9.946;2023-07-31T11:08:36;23.40;99.90
13976;DHT22;7062;49.792;9.946;2023-07-31T11:11:08;23.60;99.90
13976;DHT22;7062;49.792;9.946;2023-07-31T11:13:44;23.70;99.90
13976;DHT22;7062;49.792;9.946;2023-07-31T11:16:12;23.60;99.90
13976;DHT22;7062;49.792;9.946;2023-07-31T11:18:42;23.50;99.90
13976;DHT22;7062;49.792;9.946;2023-07-31T11:21:11;23.40;99.90
13976;DHT22;7062;49.792;9.946;2023-07-31T11:23:37;23.00;99.90
13976;DHT22;7062;49.792;9.946;2023-07-31T11:26:05;22.80;99.90
13976;DHT22;7062;49.792;9.946;2023-07-31T11:28:33;23.00;99.90
13976;DHT22;7062;49.792;9.946;2023-07-31T11:31:03;22.80;99.90
13976;DHT22;7062;49.792;9.946;2023-07-31T11:33:28;22.90;99.90
13976;DHT22;7062;49.792;9.946;2023-07-31T11:35:54;23.00;99.90
13976;DHT22;7062;49.792;9.946;2023-07-31T11:38:28;23.00;99.90
13976;DHT22;7062;49.792;9.946;2023-07-31T11:40:59;23.10;99.90
13976;DHT22;7062;49.792;9.946;2023-07-31T11:43:25;23.20;99.90
13976;DHT22;7062;49.792;9.946;2023-07-31T11:45:54;23.30;99.90
13976;DHT22;7062;49.792;9.946;2023-07-31T11:48:25;23.40;99.90
13976;DHT22;7062;49.792;9.946;2023-07-31T11:51:02;23.20;99.90
13976;DHT22;7062;49.792;9.946;2023-07-31T11:53:38;23.30;99.90
13976;DHT22;7062;49.792;9.946;2023-07-31T11:56:07;23.40;99.90
13976;DHT22;7062;49.792;9.946;2023-07-31T11:58:34;23.40;99.90
13976;DHT22;7062;49.792;9.946;2023-07-31T12:01:01;23.50;99.90
13976;DHT22;7062;49.792;9.946;2023-07-31T12:03:27;23.60;99.90
13976;DHT22;7062;49.792;9.946;2023-07-31T12:05:54;23.60;99.90
13976;DHT22;7062;49.792;9.946;2023-07-31T12:08:26;23.60;99.90
13976;DHT22;7062;49.792;9.946;2023-07-31T12:10:53;23.60;99.90
13976;DHT22;7062;49.792;9.946;2023-07-31T12:13:26;23.60;99.90
13976;DHT22;7062;49.792;9.946;2023-07-31T12:15:56;23.60;99.90
13976;DHT22;7062;49.792;9.946;2023-07-31T12:18:26;23.40;99.90
13976;DHT22;7062;49.792;9.946;2023-07-31T12:20:57;23.40;99.90
13976;DHT22;7062;49.792;9.946;2023-07-31T12:23:31;23.40;99.90
13976;DHT22;7062;49.792;9.946;2023-07-31T12:28:29;23.10;99.90
13976;DHT22;7062;49.792;9.946;2023-07-31T12:31:00;23.20;99.90
13976;DHT22;7062;49.792;9.946;2023-07-31T12:33:31;23.40;99.90
13976;DHT22;7062;49.792;9.946;2023-07-31T12:35:58;23.60;99.90
13976;DHT22;7062;49.792;9.946;2023-07-31T12:38:23;23.80;99.90
13976;DHT22;7062;49.792;9.946;2023-07-31T12:40:49;24.30;99.90
13976;DHT22;7062;49.792;9.946;2023-07-31T12:43:15;24.10;99.90
13976;DHT22;7062;49.792;9.946;2023-07-31T12:45:41;24.30;99.90
13976;DHT22;7062;49.792;9.946;2023-07-31T12:48:07;25.10;99.90
13976;DHT22;7062;49.792;9.946;2023-07-31T12:50:32;24.80;99.90
13976;DHT22;7062;49.792;9.946;2023-07-31T12:52:58;24.80;99.90
13976;DHT22;7062;49.792;9.946;2023-07-31T12:55:24;24.60;99.90
13976;DHT22;7062;49.792;9.946;2023-07-31T12:57:50;24.30;99.90
13976;DHT22;7062;49.792;9.946;2023-07-31T13:00:16;24.20;99.90
13976;DHT22;7062;49.792;9.946;2023-07-31T13:02:42;24.00;99.90
13976;DHT22;7062;49.792;9.946;2023-07-31T13:05:08;23.80;99.90
13976;DHT22;7062;49.792;9.946;2023-07-31T13:07:33;23.40;99.90
13976;DHT22;7062;49.792;9.946;2023-07-31T13:09:59;23.20;99.90
13976;DHT22;7062;49.792;9.946;2023-07-31T13:12:25;23.00;99.90
13976;DHT22;7062;49.792;9.946;2023-07-31T13:14:51;22.80;99.90
13976;DHT22;7062;49.792;9.946;2023-07-31T13:17:17;22.90;99.90
13976;DHT22;7062;49.792;9.946;2023-07-31T13:19:43;23.40;99.90
13976;DHT22;7062;49.792;9.946;2023-07-31T13:22:08;24.10;99.90
13976;DHT22;7062;49.792;9.946;2023-07-31T13:24:34;24.90;99.90
13976;DHT22;7062;49.792;9.946;2023-07-31T13:27:00;25.00;99.90
13976;DHT22;7062;49.792;9.946;2023-07-31T13:29:25;25.00;99.90
13976;DHT22;7062;49.792;9.946;2023-07-31T13:31:52;24.70;99.90
13976;DHT22;7062;49.792;9.946;2023-07-31T13:34:18;24.50;99.90
13976;DHT22;7062;49.792;9.946;2023-07-31T13:36:44;24.40;99.90
13976;DHT22;7062;49.792;9.946;2023-07-31T13:39:09;24.20;99.90
13976;DHT22;7062;49.792;9.946;2023-07-31T13:41:35;24.00;99.90
13976;DHT22;7062;49.792;9.946;2023-07-31T13:44:01;23.90;99.90
13976;DHT22;7062;49.792;9.946;2023-07-31T13:46:26;24.10;99.90
13976;DHT22;7062;49.792;9.946;2023-07-31T13:48:52;24.20;99.90
13976;DHT22;7062;49.792;9.946;2023-07-31T13:51:23;24.50;99.90
13976;DHT22;7062;49.792;9.946;2023-07-31T13:53:49;24.40;99.90
13976;DHT22;7062;49.792;9.946;2023-07-31T13:56:15;24.50;99.90
13976;DHT22;7062;49.792;9.946;2023-07-31T13:58:40;24.40;99.90
13976;DHT22;7062;49.792;9.946;2023-07-31T14:01:06;24.30;99.90
13976;DHT22;7062;49.792;9.946;2023-07-31T14:03:32;24.00;99.90
13976;DHT22;7062;49.792;9.946;2023-07-31T14:05:57;23.70;99.90
13976;DHT22;7062;49.792;9.946;2023-07-31T14:08:23;23.90;99.90
13976;DHT22;7062;49.792;9.946;2023-07-31T14:10:49;23.80;99.90
13976;DHT22;7062;49.792;9.946;2023-07-31T14:13:14;23.60;99.90
13976;DHT22;7062;49.792;9.946;2023-07-31T14:15:42;23.50;99.90
13976;DHT22;7062;49.792;9.946;2023-07-31T14:18:09;23.40;99.90
13976;DHT22;7062;49.792;9.946;2023-07-31T14:20:35;23.60;99.90
13976;DHT22;7062;49.792;9.946;2023-07-31T14:23:02;23.60;99.90
13976;DHT22;7062;49.792;9.946;2023-07-31T14:25:27;23.60;99.90
13976;DHT22;7062;49.792;9.946;2023-07-31T14:27:53;23.70;99.90
13976;DHT22;7062;49.792;9.946;2023-07-31T14:30:19;23.60;99.90
13976;DHT22;7062;49.792;9.946;2023-07-31T14:32:44;23.80;99.90
13976;DHT22;7062;49.792;9.946;2023-07-31T14:35:10;23.80;99.90
13976;DHT22;7062;49.792;9.946;2023-07-31T14:37:43;23.60;99.90
13976;DHT22;7062;49.792;9.946;2023-07-31T14:40:10;23.40;99.90
13976;DHT22;7062;49.792;9.946;2023-07-31T14:42:37;23.40;99.90
13976;DHT22;7062;49.792;9.946;2023-07-31T14:45:04;23.40;99.90
13976;DHT22;7062;49.792;9.946;2023-07-31T14:47:30;23.50;99.90
13976;DHT22;7062;49.792;9.946;2023-07-31T14:49:59;23.60;99.90
13976;DHT22;7062;49.792;9.946;2023-07-31T14:52:25;23.60;99.90
13976;DHT22;7062;49.792;9.946;2023-07-31T14:54:51;23.70;99.90
13976;DHT22;7062;49.792;9.946;2023-07-31T14:57:17;23.60;99.90
13976;DHT22;7062;49.792;9.946;2023-07-31T14:59:43;23.30;99.90
13976;DHT22;7062;49.792;9.946;2023-07-31T15:02:09;23.30;99.90
13976;DHT22;7062;49.792;9.946;2023-07-31T15:04:35;23.20;99.90
13976;DHT22;7062;49.792;9.946;2023-07-31T15:07:01;23.00;99.90
13976;DHT22;7062;49.792;9.946;2023-07-31T15:09:27;23.00;99.90
13976;DHT22;7062;49.792;9.946;2023-07-31T15:11:53;22.90;99.90
13976;DHT22;7062;49.792;9.946;2023-07-31T15:14:19;22.90;99.90
13976;DHT22;7062;49.792;9.946;2023-07-31T15:16:45;22.90;99.90
13976;DHT22;7062;49.792;9.946;2023-07-31T15:19:10;22.90;99.90
13976;DHT22;7062;49.792;9.946;2023-07-31T15:21:37;23.00;99.90
13976;DHT22;7062;49.792;9.946;2023-07-31T15:24:03;23.00;99.90
13976;DHT22;7062;49.792;9.946;2023-07-31T15:26:29;23.00;99.90
13976;DHT22;7062;49.792;9.946;2023-07-31T15:29:05;22.80;99.90
13976;DHT22;7062;49.792;9.946;2023-07-31T15:31:38;22.90;99.90
13976;DHT22;7062;49.792;9.946;2023-07-31T15:34:04;22.90;99.90
13976;DHT22;7062;49.792;9.946;2023-07-31T15:36:30;22.90;99.90
13976;DHT22;7062;49.792;9.946;2023-07-31T15:38:56;22.80;99.90
13976;DHT22;7062;49.792;9.946;2023-07-31T15:41:22;22.80;99.90
13976;DHT22;7062;49.792;9.946;2023-07-31T15:43:49;22.80;99.90
13976;DHT22;7062;49.792;9.946;2023-07-31T15:46:14;22.90;99.90
13976;DHT22;7062;49.792;9.946;2023-07-31T15:48:40;22.90;99.90
13976;DHT22;7062;49.792;9.946;2023-07-31T15:51:06;22.90;99.90
13976;DHT22;7062;49.792;9.946;2023-07-31T15:53:31;22.80;99.90
13976;DHT22;7062;49.792;9.946;2023-07-31T15:55:57;22.80;99.90
13976;DHT22;7062;49.792;9.946;2023-07-31T15:58:23;22.80;99.90
13976;DHT22;7062;49.792;9.946;2023-07-31T16:00:49;22.80;99.90